sensor_id;sensor_type;location;lat;lon;timestamp;pressure;altitude;pressure_sealevel;temperature;humidity
39449;BME280;25151;45.566;9.382;2023-04-28T00:01:38;100070.19;;;20.63;60.08
39449;BME280;25151;45.566;9.382;2023-04-28T00:04:39;100071.38;;;20.62;60.27
39449;BME280;25151;45.566;9.382;2023-04-28T00:07:39;100062.97;;;20.62;60.06
39449;BME280;25151;45.566;9.382;2023-04-28T00:10:40;100066.25;;;20.60;59.93
39449;BME280;25151;45.566;9.382;2023-04-28T00:13:42;100078.22;;;20.61;60.27
39449;BME280;25151;45.566;9.382;2023-04-28T00:16:42;100078.22;;;20.61;60.17
39449;BME280;25151;45.566;9.382;2023-04-28T00:19:44;100074.66;;;20.60;60.18
39449;BME280;25151;45.566;9.382;2023-04-28T00:22:45;100074.28;;;20.58;60.13
39449;BME280;25151;45.566;9.382;2023-04-28T00:25:52;100068.69;;;20.58;59.99
39449;BME280;25151;45.566;9.382;2023-04-28T00:28:53;100068.69;;;20.58;60.15
39449;BME280;25151;45.566;9.382;2023-04-28T00:31:53;100072.72;;;20.57;60.28
39449;BME280;25151;45.566;9.382;2023-04-28T00:34:55;100061.53;;;20.57;60.09
39449;BME280;25151;45.566;9.382;2023-04-28T00:37:56;100059.97;;;20.56;59.77
39449;BME280;25151;45.566;9.382;2023-04-28T00:40:56;100061.53;;;20.57;59.92
39449;BME280;25151;45.566;9.382;2023-04-28T00:43:57;100059.97;;;20.56;59.96
39449;BME280;25151;45.566;9.382;2023-04-28T00:46:58;100059.97;;;20.56;60.22
39449;BME280;25151;45.566;9.382;2023-04-28T00:50:02;100059.97;;;20.56;60.09
39449;BME280;25151;45.566;9.382;2023-04-28T00:53:05;100059.97;;;20.56;59.89
39449;BME280;25151;45.566;9.382;2023-04-28T00:56:06;100054.00;;;20.54;60.19
39449;BME280;25151;45.566;9.382;2023-04-28T00:59:07;100047.19;;;20.55;59.84
39449;BME280;25151;45.566;9.382;2023-04-28T01:02:08;100041.59;;;20.55;59.97
39449;BME280;25151;45.566;9.382;2023-04-28T01:05:08;100044.03;;;20.53;60.27
39449;BME280;25151;45.566;9.382;2023-04-28T01:08:10;100047.63;;;20.54;60.16
39449;BME280;25151;45.566;9.382;2023-04-28T01:11:10;100052.44;;;20.53;60.12
39449;BME280;25151;45.566;9.382;2023-04-28T01:14:13;100043.25;;;20.53;60.12
39449;BME280;25151;45.566;9.382;2023-04-28T01:17:13;100044.03;;;20.53;60.05
39449;BME280;25151;45.566;9.382;2023-04-28T01:20:14;100032.81;;;20.53;60.05
39449;BME280;25151;45.566;9.382;2023-04-28T01:23:15;100030.47;;;20.52;59.85
39449;BME280;25151;45.566;9.382;2023-04-28T01:26:16;100024.50;;;20.50;60.22
39449;BME280;25151;45.566;9.382;2023-04-28T01:29:17;100040.91;;;20.51;60.19
39449;BME280;25151;45.566;9.382;2023-04-28T01:32:17;100043.69;;;20.51;60.12
39449;BME280;25151;45.566;9.382;2023-04-28T01:35:18;100044.91;;;20.50;60.26
39449;BME280;25151;45.566;9.382;2023-04-28T01:38:18;100046.16;;;20.49;59.95
39449;BME280;25151;45.566;9.382;2023-04-28T01:41:19;100048.94;;;20.49;60.03
39449;BME280;25151;45.566;9.382;2023-04-28T01:44:19;100049.72;;;20.50;60.05
39449;BME280;25151;45.566;9.382;2023-04-28T01:47:20;100052.94;;;20.48;60.03
39449;BME280;25151;45.566;9.382;2023-04-28T01:50:20;100044.53;;;20.48;59.84
39449;BME280;25151;45.566;9.382;2023-04-28T01:53:21;100056.56;;;20.49;59.89
39449;BME280;25151;45.566;9.382;2023-04-28T01:56:21;100054.97;;;20.48;60.31
39449;BME280;25151;45.566;9.382;2023-04-28T01:59:25;100053.75;;;20.49;60.21
39449;BME280;25151;45.566;9.382;2023-04-28T02:02:25;100053.38;;;20.47;60.14
39449;BME280;25151;45.566;9.382;2023-04-28T02:05:29;100061.00;;;20.46;59.97
39449;BME280;25151;45.566;9.382;2023-04-28T02:08:32;100074.56;;;20.48;60.09
39449;BME280;25151;45.566;9.382;2023-04-28T02:11:33;100078.59;;;20.47;60.17
39449;BME280;25151;45.566;9.382;2023-04-28T02:14:34;100079.41;;;20.47;60.27
39449;BME280;25151;45.566;9.382;2023-04-28T02:17:36;100080.28;;;20.44;60.31
39449;BME280;25151;45.566;9.382;2023-04-28T02:20:38;100083.41;;;20.46;59.92
39449;BME280;25151;45.566;9.382;2023-04-28T02:23:39;100081.84;;;20.45;59.89
39449;BME280;25151;45.566;9.382;2023-04-28T02:26:46;100075.47;;;20.45;59.84
39449;BME280;25151;45.566;9.382;2023-04-28T02:29:52;100080.59;;;20.46;60.32
39449;BME280;25151;45.566;9.382;2023-04-28T02:32:53;100078.72;;;20.43;60.14
39449;BME280;25151;45.566;9.382;2023-04-28T02:36:00;100081.84;;;20.45;59.98
39449;BME280;25151;45.566;9.382;2023-04-28T02:39:04;100088.31;;;20.42;60.54
39449;BME280;25151;45.566;9.382;2023-04-28T02:42:04;100089.91;;;20.43;60.08
39449;BME280;25151;45.566;9.382;2023-04-28T02:45:11;100088.31;;;20.42;60.00
39449;BME280;25151;45.566;9.382;2023-04-28T02:48:13;100078.72;;;20.43;60.14
39449;BME280;25151;45.566;9.382;2023-04-28T02:51:16;100069.94;;;20.41;60.11
39449;BME280;25151;45.566;9.382;2023-04-28T02:54:27;100059.53;;;20.42;60.27
39449;BME280;25151;45.566;9.382;2023-04-28T02:57:32;100057.50;;;20.42;59.94
39449;BME280;25151;45.566;9.382;2023-04-28T03:00:37;100045.97;;;20.40;59.93
39449;BME280;25151;45.566;9.382;2023-04-28T03:03:44;100041.16;;;20.41;60.17
39449;BME280;25151;45.566;9.382;2023-04-28T03:06:45;100036.34;;;20.41;59.88
39449;BME280;25151;45.566;9.382;2023-04-28T03:09:47;100039.94;;;20.42;60.26
39449;BME280;25151;45.566;9.382;2023-04-28T03:12:49;100041.94;;;20.41;60.01
39449;BME280;25151;45.566;9.382;2023-04-28T03:15:57;100035.56;;;20.41;60.21
39449;BME280;25151;45.566;9.382;2023-04-28T03:18:58;100040.38;;;20.40;60.15
39449;BME280;25151;45.566;9.382;2023-04-28T03:21:59;100034.78;;;20.40;59.96
39449;BME280;25151;45.566;9.382;2023-04-28T03:25:07;100037.56;;;20.40;59.98
39449;BME280;25151;45.566;9.382;2023-04-28T03:28:24;100043.19;;;20.40;59.94
39449;BME280;25151;45.566;9.382;2023-04-28T03:31:33;100053.59;;;20.39;59.86
39449;BME280;25151;45.566;9.382;2023-04-28T03:34:42;100060.41;;;20.38;60.08
39449;BME280;25151;45.566;9.382;2023-04-28T03:37:53;100048.41;;;20.38;60.10
39449;BME280;25151;45.566;9.382;2023-04-28T03:40:54;100063.22;;;20.38;60.03
39449;BME280;25151;45.566;9.382;2023-04-28T03:44:07;100058.06;;;20.37;60.13
39449;BME280;25151;45.566;9.382;2023-04-28T03:47:09;100064.44;;;20.37;59.88
39449;BME280;25151;45.566;9.382;2023-04-28T03:50:22;100084.84;;;20.38;60.09
39449;BME280;25151;45.566;9.382;2023-04-28T03:53:29;100073.31;;;20.36;59.74
39449;BME280;25151;45.566;9.382;2023-04-28T03:56:31;100067.25;;;20.37;60.01
39449;BME280;25151;45.566;9.382;2023-04-28T03:59:35;100060.06;;;20.36;60.06
39449;BME280;25151;45.566;9.382;2023-04-28T04:02:37;100052.91;;;20.35;60.02
39449;BME280;25151;45.566;9.382;2023-04-28T04:05:42;100051.69;;;20.36;59.94
39449;BME280;25151;45.566;9.382;2023-04-28T04:08:43;100057.69;;;20.35;60.15
39449;BME280;25151;45.566;9.382;2023-04-28T04:11:53;100062.09;;;20.36;60.33
39449;BME280;25151;45.566;9.382;2023-04-28T04:14:59;100050.13;;;20.35;59.81
39449;BME280;25151;45.566;9.382;2023-04-28T04:18:02;100050.91;;;20.36;59.89
39449;BME280;25151;45.566;9.382;2023-04-28T04:21:07;100056.50;;;20.36;59.99
39449;BME280;25151;45.566;9.382;2023-04-28T04:24:14;100046.50;;;20.35;59.76
39449;BME280;25151;45.566;9.382;2023-04-28T04:27:19;100054.91;;;20.35;60.07
39449;BME280;25151;45.566;9.382;2023-04-28T04:30:27;100060.50;;;20.35;60.20
39449;BME280;25151;45.566;9.382;2023-04-28T04:33:30;100058.94;;;20.34;59.91
39449;BME280;25151;45.566;9.382;2023-04-28T04:36:35;100047.75;;;20.34;60.19
39449;BME280;25151;45.566;9.382;2023-04-28T04:39:37;100047.75;;;20.34;60.04
39449;BME280;25151;45.566;9.382;2023-04-28T04:42:52;100053.34;;;20.34;60.09
39449;BME280;25151;45.566;9.382;2023-04-28T04:45:59;100046.06;;;20.36;59.76
39449;BME280;25151;45.566;9.382;2023-04-28T04:49:04;100048.88;;;20.36;59.80
39449;BME280;25151;45.566;9.382;2023-04-28T04:52:08;100052.78;;;20.39;59.79
39449;BME280;25151;45.566;9.382;2023-04-28T04:55:09;100050.00;;;20.39;59.94
39449;BME280;25151;45.566;9.382;2023-04-28T04:58:10;100062.78;;;20.40;60.02
39449;BME280;25151;45.566;9.382;2023-04-28T05:01:11;100064.00;;;20.39;59.84
39449;BME280;25151;45.566;9.382;2023-04-28T05:04:11;100069.16;;;20.41;59.74
39449;BME280;25151;45.566;9.382;2023-04-28T05:07:12;100074.00;;;20.40;59.81
39449;BME280;25151;45.566;9.382;2023-04-28T05:10:13;100078.34;;;20.41;59.69
39449;BME280;25151;45.566;9.382;2023-04-28T05:13:13;100070.72;;;20.42;59.88
39449;BME280;25151;45.566;9.382;2023-04-28T05:16:14;100077.13;;;20.42;59.74
39449;BME280;25151;45.566;9.382;2023-04-28T05:19:15;100089.91;;;20.43;59.95
39449;BME280;25151;45.566;9.382;2023-04-28T05:22:15;100094.28;;;20.44;59.95
39449;BME280;25151;45.566;9.382;2023-04-28T05:25:16;100096.31;;;20.44;59.90
39449;BME280;25151;45.566;9.382;2023-04-28T05:28:16;100097.09;;;20.44;59.75
39449;BME280;25151;45.566;9.382;2023-04-28T05:31:17;100104.25;;;20.45;59.74
39449;BME280;25151;45.566;9.382;2023-04-28T05:34:18;100104.25;;;20.45;60.04
39449;BME280;25151;45.566;9.382;2023-04-28T05:37:18;100109.84;;;20.45;60.12
39449;BME280;25151;45.566;9.382;2023-04-28T05:40:20;100116.69;;;20.44;60.15
39449;BME280;25151;45.566;9.382;2023-04-28T05:43:21;100111.41;;;20.46;60.17
39449;BME280;25151;45.566;9.382;2023-04-28T05:46:22;100118.63;;;20.47;60.09
39449;BME280;25151;45.566;9.382;2023-04-28T05:49:22;100117.81;;;20.47;60.04
39449;BME280;25151;45.566;9.382;2023-04-28T05:52:25;100118.63;;;20.47;60.30
39449;BME280;25151;45.566;9.382;2023-04-28T05:55:27;100125.78;;;20.48;60.18
39449;BME280;25151;45.566;9.382;2023-04-28T05:58:28;100119.41;;;20.48;60.01
39449;BME280;25151;45.566;9.382;2023-04-28T06:01:30;100120.19;;;20.48;60.21
39449;BME280;25151;45.566;9.382;2023-04-28T06:04:31;100122.56;;;20.50;60.08
39449;BME280;25151;45.566;9.382;2023-04-28T06:07:31;100128.16;;;20.50;60.28
39449;BME280;25151;45.566;9.382;2023-04-28T06:10:32;100120.53;;;20.50;60.30
39449;BME280;25151;45.566;9.382;2023-04-28T06:13:32;100121.78;;;20.49;60.00
39449;BME280;25151;45.566;9.382;2023-04-28T06:16:33;100133.75;;;20.50;59.88
39449;BME280;25151;45.566;9.382;2023-04-28T06:19:34;100132.09;;;20.52;60.28
39449;BME280;25151;45.566;9.382;2023-04-28T06:22:34;100136.94;;;20.52;60.00
39449;BME280;25151;45.566;9.382;2023-04-28T06:25:35;100141.75;;;20.51;60.22
39449;BME280;25151;45.566;9.382;2023-04-28T06:28:36;100142.53;;;20.52;60.07
39449;BME280;25151;45.566;9.382;2023-04-28T06:31:36;100136.16;;;20.51;60.09
39449;BME280;25151;45.566;9.382;2023-04-28T06:34:37;100137.72;;;20.52;60.25
39449;BME280;25151;45.566;9.382;2023-04-28T06:37:38;100130.53;;;20.51;60.39
39449;BME280;25151;45.566;9.382;2023-04-28T06:40:39;100115.28;;;20.52;60.15
39449;BME280;25151;45.566;9.382;2023-04-28T06:43:40;100107.69;;;20.53;60.28
39449;BME280;25151;45.566;9.382;2023-04-28T06:46:41;100110.03;;;20.54;60.25
39449;BME280;25151;45.566;9.382;2023-04-28T06:49:42;100094.44;;;20.53;60.37
39449;BME280;25151;45.566;9.382;2023-04-28T06:52:43;100097.72;;;20.52;60.18
39449;BME280;25151;45.566;9.382;2023-04-28T06:55:44;100105.66;;;20.53;60.32
39449;BME280;25151;45.566;9.382;2023-04-28T06:58:45;100112.81;;;20.54;60.48
39449;BME280;25151;45.566;9.382;2023-04-28T07:01:45;100126.50;;;20.52;60.38
39449;BME280;25151;45.566;9.382;2023-04-28T07:04:46;100130.53;;;20.51;60.09
39449;BME280;25151;45.566;9.382;2023-04-28T07:07:47;100128.53;;;20.52;60.39
39449;BME280;25151;45.566;9.382;2023-04-28T07:10:48;100121.78;;;20.49;60.01
39449;BME280;25151;45.566;9.382;2023-04-28T07:13:48;100119.75;;;20.50;60.18
39449;BME280;25151;45.566;9.382;2023-04-28T07:16:50;100109.34;;;20.50;60.27
39449;BME280;25151;45.566;9.382;2023-04-28T07:19:51;100104.97;;;20.49;60.09
39449;BME280;25151;45.566;9.382;2023-04-28T07:22:51;100103.72;;;20.50;59.91
39449;BME280;25151;45.566;9.382;2023-04-28T07:25:52;100110.56;;;20.49;59.73
39449;BME280;25151;45.566;9.382;2023-04-28T07:28:53;100110.56;;;20.49;59.78
39449;BME280;25151;45.566;9.382;2023-04-28T07:31:53;100116.19;;;20.49;59.75
39449;BME280;25151;45.566;9.382;2023-04-28T07:34:54;100118.19;;;20.49;59.92
39449;BME280;25151;45.566;9.382;2023-04-28T07:37:55;100129.31;;;20.52;59.66
39449;BME280;25151;45.566;9.382;2023-04-28T07:40:57;100122.13;;;20.51;59.88
39449;BME280;25151;45.566;9.382;2023-04-28T07:43:57;100122.47;;;20.53;59.72
39449;BME280;25151;45.566;9.382;2023-04-28T07:46:58;100128.06;;;20.53;59.57
39449;BME280;25151;45.566;9.382;2023-04-28T07:50:00;100121.22;;;20.54;59.58
39449;BME280;25151;45.566;9.382;2023-04-28T07:53:04;100123.25;;;20.54;59.56
39449;BME280;25151;45.566;9.382;2023-04-28T07:56:05;100126.06;;;20.54;59.67
39449;BME280;25151;45.566;9.382;2023-04-28T07:59:05;100113.59;;;20.55;59.55
39449;BME280;25151;45.566;9.382;2023-04-28T08:02:06;100116.88;;;20.53;59.29
39449;BME280;25151;45.566;9.382;2023-04-28T08:05:07;100116.41;;;20.55;59.30
39449;BME280;25151;45.566;9.382;2023-04-28T08:08:08;100112.81;;;20.54;59.44
39449;BME280;25151;45.566;9.382;2023-04-28T08:11:09;100111.25;;;20.53;59.38
39449;BME280;25151;45.566;9.382;2023-04-28T08:14:10;100108.81;;;20.55;59.46
39449;BME280;25151;45.566;9.382;2023-04-28T08:17:10;100114.41;;;20.55;59.39
39449;BME280;25151;45.566;9.382;2023-04-28T08:20:11;100116.78;;;20.57;59.24
39449;BME280;25151;45.566;9.382;2023-04-28T08:23:14;100129.53;;;20.58;59.60
39449;BME280;25151;45.566;9.382;2023-04-28T08:26:15;100124.72;;;20.58;59.22
39449;BME280;25151;45.566;9.382;2023-04-28T08:29:16;100123.16;;;20.57;59.28
39449;BME280;25151;45.566;9.382;2023-04-28T08:32:17;100118.78;;;20.56;59.52
39449;BME280;25151;45.566;9.382;2023-04-28T08:35:18;100121.59;;;20.56;59.46
39449;BME280;25151;45.566;9.382;2023-04-28T08:38:18;100116.00;;;20.56;59.17
39449;BME280;25151;45.566;9.382;2023-04-28T08:41:21;100117.56;;;20.57;59.16
39449;BME280;25151;45.566;9.382;2023-04-28T08:44:22;100116.78;;;20.57;59.27
39449;BME280;25151;45.566;9.382;2023-04-28T08:47:23;100122.38;;;20.57;59.31
39449;BME280;25151;45.566;9.382;2023-04-28T08:50:28;100119.94;;;20.59;59.32
39449;BME280;25151;45.566;9.382;2023-04-28T08:53:30;100118.25;;;20.61;59.20
39449;BME280;25151;45.566;9.382;2023-04-28T08:56:32;100112.63;;;20.61;59.25
39449;BME280;25151;45.566;9.382;2023-04-28T08:59:37;100107.03;;;20.61;59.42
39449;BME280;25151;45.566;9.382;2023-04-28T09:02:38;100108.28;;;20.60;59.27
39449;BME280;25151;45.566;9.382;2023-04-28T09:05:41;100118.25;;;20.61;59.52
39449;BME280;25151;45.566;9.382;2023-04-28T09:08:42;100119.47;;;20.60;59.04
39449;BME280;25151;45.566;9.382;2023-04-28T09:11:57;100117.47;;;20.61;59.30
39449;BME280;25151;45.566;9.382;2023-04-28T09:15:01;100103.44;;;20.61;59.25
39449;BME280;25151;45.566;9.382;2023-04-28T09:18:13;100095.03;;;20.61;59.29
39449;BME280;25151;45.566;9.382;2023-04-28T09:21:14;100108.59;;;20.62;59.04
39449;BME280;25151;45.566;9.382;2023-04-28T09:24:29;100107.38;;;20.63;59.40
39449;BME280;25151;45.566;9.382;2023-04-28T09:27:34;100115.34;;;20.65;59.18
39449;BME280;25151;45.566;9.382;2023-04-28T09:30:38;100100.88;;;20.67;59.52
39449;BME280;25151;45.566;9.382;2023-04-28T09:33:56;100099.66;;;20.68;59.52
39449;BME280;25151;45.566;9.382;2023-04-28T09:36:56;100088.47;;;20.68;59.34
39449;BME280;25151;45.566;9.382;2023-04-28T09:40:04;100088.00;;;20.69;59.48
39449;BME280;25151;45.566;9.382;2023-04-28T09:43:22;100083.63;;;20.68;59.23
39449;BME280;25151;45.566;9.382;2023-04-28T09:46:28;100089.56;;;20.70;59.42
39449;BME280;25151;45.566;9.382;2023-04-28T09:49:29;100086.78;;;20.70;59.22
39449;BME280;25151;45.566;9.382;2023-04-28T09:52:29;100082.75;;;20.71;59.58
39449;BME280;25151;45.566;9.382;2023-04-28T09:55:35;100078.72;;;20.72;59.33
39449;BME280;25151;45.566;9.382;2023-04-28T09:58:39;100073.91;;;20.73;59.82
39449;BME280;25151;45.566;9.382;2023-04-28T10:01:40;100079.03;;;20.74;59.34
39449;BME280;25151;45.566;9.382;2023-04-28T10:04:47;100078.63;;;20.76;59.72
39449;BME280;25151;45.566;9.382;2023-04-28T10:07:47;100078.63;;;20.76;59.27
39449;BME280;25151;45.566;9.382;2023-04-28T10:10:49;100079.41;;;20.76;59.38
39449;BME280;25151;45.566;9.382;2023-04-28T10:13:53;100073.00;;;20.76;59.69
39449;BME280;25151;45.566;9.382;2023-04-28T10:16:55;100073.00;;;20.76;59.66
39449;BME280;25151;45.566;9.382;2023-04-28T10:19:56;100069.75;;;20.77;59.59
39449;BME280;25151;45.566;9.382;2023-04-28T10:23:23;100075.34;;;20.77;59.77
39449;BME280;25151;45.566;9.382;2023-04-28T10:29:35;100060.94;;;20.79;59.85
39449;BME280;25151;45.566;9.382;2023-04-28T10:32:37;100053.72;;;20.78;59.64
39449;BME280;25151;45.566;9.382;2023-04-28T10:39:09;100049.72;;;20.79;59.84
39449;BME280;25151;45.566;9.382;2023-04-28T10:42:50;100058.44;;;20.81;59.62
39449;BME280;25151;45.566;9.382;2023-04-28T10:45:57;100051.28;;;20.80;59.66
39449;BME280;25151;45.566;9.382;2023-04-28T10:49:01;100045.66;;;20.80;59.66
39449;BME280;25151;45.566;9.382;2023-04-28T10:55:38;100039.59;;;20.81;59.94
39449;BME280;25151;45.566;9.382;2023-04-28T10:58:42;100036.81;;;20.81;59.83
39449;BME280;25151;45.566;9.382;2023-04-28T11:01:45;100037.59;;;20.82;59.70
39449;BME280;25151;45.566;9.382;2023-04-28T11:05:10;100029.97;;;20.82;59.69
39449;BME280;25151;45.566;9.382;2023-04-28T11:11:20;100021.44;;;20.86;59.92
39449;BME280;25151;45.566;9.382;2023-04-28T11:17:40;100004.19;;;20.87;59.63
39449;BME280;25151;45.566;9.382;2023-04-28T11:20:43;99995.78;;;20.87;59.66
39449;BME280;25151;45.566;9.382;2023-04-28T11:23:46;99990.97;;;20.88;59.58
39449;BME280;25151;45.566;9.382;2023-04-28T11:26:47;99982.56;;;20.88;59.66
39449;BME280;25151;45.566;9.382;2023-04-28T11:29:47;99979.75;;;20.88;59.85
39449;BME280;25151;45.566;9.382;2023-04-28T11:32:49;99968.97;;;20.86;59.98
39449;BME280;25151;45.566;9.382;2023-04-28T11:35:50;99962.59;;;20.86;59.95
39449;BME280;25151;45.566;9.382;2023-04-28T11:38:51;99962.59;;;20.86;59.61
39449;BME280;25151;45.566;9.382;2023-04-28T11:41:52;99959.78;;;20.86;59.49
39449;BME280;25151;45.566;9.382;2023-04-28T11:44:53;99954.19;;;20.86;59.58
39449;BME280;25151;45.566;9.382;2023-04-28T11:47:54;99938.59;;;20.85;59.95
39449;BME280;25151;45.566;9.382;2023-04-28T11:50:55;99939.84;;;20.84;59.80
39449;BME280;25151;45.566;9.382;2023-04-28T11:53:55;99931.88;;;20.82;59.83
39449;BME280;25151;45.566;9.382;2023-04-28T11:56:56;99937.03;;;20.84;59.68
39449;BME280;25151;45.566;9.382;2023-04-28T12:00:18;99935.03;;;20.84;59.65
39449;BME280;25151;45.566;9.382;2023-04-28T12:03:21;99934.25;;;20.84;59.74
39449;BME280;25151;45.566;9.382;2023-04-28T12:06:22;99941.41;;;20.85;59.81
39449;BME280;25151;45.566;9.382;2023-04-28T12:09:22;99936.59;;;20.85;59.66
39449;BME280;25151;45.566;9.382;2023-04-28T12:12:29;99935.81;;;20.85;59.43
39449;BME280;25151;45.566;9.382;2023-04-28T12:15:40;99937.38;;;20.86;59.48
39449;BME280;25151;45.566;9.382;2023-04-28T12:18:57;99936.59;;;20.85;59.48
39449;BME280;25151;45.566;9.382;2023-04-28T12:22:03;99937.38;;;20.86;59.53
39449;BME280;25151;45.566;9.382;2023-04-28T12:25:08;99937.38;;;20.86;59.38
39449;BME280;25151;45.566;9.382;2023-04-28T12:28:09;99932.53;;;20.86;59.83
39449;BME280;25151;45.566;9.382;2023-04-28T12:31:10;99928.97;;;20.86;59.33
39449;BME280;25151;45.566;9.382;2023-04-28T12:34:12;99926.16;;;20.86;59.61
39449;BME280;25151;45.566;9.382;2023-04-28T12:37:13;99921.78;;;20.85;59.50
39449;BME280;25151;45.566;9.382;2023-04-28T12:40:14;99926.16;;;20.86;59.41
39449;BME280;25151;45.566;9.382;2023-04-28T12:43:18;99907.78;;;20.85;59.65
39449;BME280;25151;45.566;9.382;2023-04-28T12:46:18;99913.38;;;20.85;59.67
39449;BME280;25151;45.566;9.382;2023-04-28T12:49:19;99906.53;;;20.86;59.52
39449;BME280;25151;45.566;9.382;2023-04-28T12:52:22;99896.56;;;20.85;59.77
39449;BME280;25151;45.566;9.382;2023-04-28T12:55:23;99885.34;;;20.85;59.45
39449;BME280;25151;45.566;9.382;2023-04-28T12:58:23;99882.56;;;20.85;59.71
39449;BME280;25151;45.566;9.382;2023-04-28T13:01:24;99886.91;;;20.86;59.65
39449;BME280;25151;45.566;9.382;2023-04-28T13:04:26;99884.13;;;20.86;59.67
39449;BME280;25151;45.566;9.382;2023-04-28T13:07:27;99886.13;;;20.85;59.29
39449;BME280;25151;45.566;9.382;2023-04-28T13:10:29;99864.50;;;20.86;59.67
39449;BME280;25151;45.566;9.382;2023-04-28T13:13:30;99859.66;;;20.86;59.51
39449;BME280;25151;45.566;9.382;2023-04-28T13:16:31;99866.09;;;20.87;59.53
39449;BME280;25151;45.566;9.382;2023-04-28T13:19:31;99855.66;;;20.87;59.48
39449;BME280;25151;45.566;9.382;2023-04-28T13:22:33;99852.84;;;20.87;59.59
39449;BME280;25151;45.566;9.382;2023-04-28T13:25:34;99839.63;;;20.88;59.52
39449;BME280;25151;45.566;9.382;2023-04-28T13:28:35;99836.03;;;20.87;59.52
39449;BME280;25151;45.566;9.382;2023-04-28T13:31:36;99833.22;;;20.87;59.51
39449;BME280;25151;45.566;9.382;2023-04-28T13:34:38;99824.81;;;20.87;59.80
39449;BME280;25151;45.566;9.382;2023-04-28T13:37:39;99820.44;;;20.86;59.45
39449;BME280;25151;45.566;9.382;2023-04-28T13:40:44;99822.34;;;20.90;59.38
39449;BME280;25151;45.566;9.382;2023-04-28T13:43:45;99821.13;;;20.91;59.42
39449;BME280;25151;45.566;9.382;2023-04-28T13:46:46;99825.16;;;20.90;59.65
39449;BME280;25151;45.566;9.382;2023-04-28T13:49:47;99827.16;;;20.89;59.56
39449;BME280;25151;45.566;9.382;2023-04-28T13:52:48;99822.81;;;20.88;59.79
39449;BME280;25151;45.566;9.382;2023-04-28T13:55:49;99818.75;;;20.89;59.50
39449;BME280;25151;45.566;9.382;2023-04-28T13:58:53;99807.53;;;20.89;59.76
39449;BME280;25151;45.566;9.382;2023-04-28T14:01:53;99806.00;;;20.88;59.58
39449;BME280;25151;45.566;9.382;2023-04-28T14:04:54;99806.00;;;20.88;59.50
39449;BME280;25151;45.566;9.382;2023-04-28T14:07:58;99805.22;;;20.87;59.73
39449;BME280;25151;45.566;9.382;2023-04-28T14:10:58;99806.00;;;20.88;59.54
39449;BME280;25151;45.566;9.382;2023-04-28T14:13:59;99801.16;;;20.88;59.65
39449;BME280;25151;45.566;9.382;2023-04-28T14:17:00;99801.94;;;20.89;59.77
39449;BME280;25151;45.566;9.382;2023-04-28T14:20:02;99782.31;;;20.89;59.89
39449;BME280;25151;45.566;9.382;2023-04-28T14:23:03;99790.41;;;20.87;59.79
39449;BME280;25151;45.566;9.382;2023-04-28T14:26:04;99783.56;;;20.88;59.64
39449;BME280;25151;45.566;9.382;2023-04-28T14:29:06;99782.78;;;20.87;59.77
39449;BME280;25151;45.566;9.382;2023-04-28T14:32:06;99770.78;;;20.87;59.48
39449;BME280;25151;45.566;9.382;2023-04-28T14:35:08;99779.53;;;20.89;59.47
39449;BME280;25151;45.566;9.382;2023-04-28T14:38:08;99785.13;;;20.89;59.56
39449;BME280;25151;45.566;9.382;2023-04-28T14:41:09;99770.78;;;20.87;59.78
39449;BME280;25151;45.566;9.382;2023-04-28T14:44:10;99765.97;;;20.87;59.64
39449;BME280;25151;45.566;9.382;2023-04-28T14:47:12;99753.97;;;20.87;59.69
39449;BME280;25151;45.566;9.382;2023-04-28T14:50:13;99757.09;;;20.89;59.52
39449;BME280;25151;45.566;9.382;2023-04-28T14:53:13;99755.53;;;20.88;59.51
39449;BME280;25151;45.566;9.382;2023-04-28T14:56:15;99752.72;;;20.88;59.79
39449;BME280;25151;45.566;9.382;2023-04-28T14:59:16;99748.38;;;20.87;59.79
39449;BME280;25151;45.566;9.382;2023-04-28T15:02:18;99755.53;;;20.88;59.80
39449;BME280;25151;45.566;9.382;2023-04-28T15:05:25;99739.97;;;20.87;59.83
39449;BME280;25151;45.566;9.382;2023-04-28T15:08:26;99740.75;;;20.87;59.44
39449;BME280;25151;45.566;9.382;2023-04-28T15:11:27;99731.56;;;20.87;59.86
39449;BME280;25151;45.566;9.382;2023-04-28T15:14:30;99735.56;;;20.86;59.78
39449;BME280;25151;45.566;9.382;2023-04-28T15:17:31;99732.00;;;20.85;59.80
39449;BME280;25151;45.566;9.382;2023-04-28T15:20:33;99729.53;;;20.87;59.93
39449;BME280;25151;45.566;9.382;2023-04-28T15:23:41;99733.13;;;20.88;59.80
39449;BME280;25151;45.566;9.382;2023-04-28T15:26:44;99733.13;;;20.88;59.90
39449;BME280;25151;45.566;9.382;2023-04-28T15:29:44;99721.13;;;20.87;59.52
39449;BME280;25151;45.566;9.382;2023-04-28T15:32:46;99727.50;;;20.88;59.70
39449;BME280;25151;45.566;9.382;2023-04-28T15:35:48;99716.31;;;20.88;59.91
39449;BME280;25151;45.566;9.382;2023-04-28T15:38:49;99720.66;;;20.89;59.98
39449;BME280;25151;45.566;9.382;2023-04-28T15:41:51;99723.47;;;20.89;59.32
39449;BME280;25151;45.566;9.382;2023-04-28T15:44:52;99725.84;;;20.91;59.99
39449;BME280;25151;45.566;9.382;2023-04-28T15:47:53;99721.44;;;20.90;59.96
39449;BME280;25151;45.566;9.382;2023-04-28T15:50:54;99725.03;;;20.90;59.84
39449;BME280;25151;45.566;9.382;2023-04-28T15:53:55;99722.22;;;20.90;59.64
39449;BME280;25151;45.566;9.382;2023-04-28T15:56:56;99713.81;;;20.90;59.72
39449;BME280;25151;45.566;9.382;2023-04-28T15:59:57;99703.41;;;20.91;60.02
39449;BME280;25151;45.566;9.382;2023-04-28T16:02:58;99704.19;;;20.91;59.97
39449;BME280;25151;45.566;9.382;2023-04-28T16:06:01;99706.06;;;20.94;59.74
39449;BME280;25151;45.566;9.382;2023-04-28T16:09:03;99700.00;;;20.96;59.66
39449;BME280;25151;45.566;9.382;2023-04-28T16:12:03;99702.03;;;20.95;59.77
39449;BME280;25151;45.566;9.382;2023-04-28T16:15:05;99695.19;;;20.96;59.64